createdAt,value
2019-04-30T00:00:51.921Z,8.49
2019-04-30T00:05:58.681Z,8.55
2019-04-30T00:11:05.355Z,8.51
2019-04-30T00:16:10.635Z,8.64
2019-04-30T00:21:18.644Z,8.51
2019-04-30T00:26:22.771Z,8.35
2019-04-30T00:31:27.875Z,8.39
2019-04-30T00:36:33.957Z,8.61
2019-04-30T00:41:45.888Z,8.32
2019-04-30T00:46:48.022Z,8.32
2019-04-30T00:51:56.726Z,8.28
2019-04-30T00:57:06.276Z,8.37
2019-04-30T01:02:27.808Z,8.33
2019-04-30T01:07:26.547Z,8.36
2019-04-30T01:12:38.514Z,8.30
2019-04-30T01:17:40.814Z,8.22
2019-04-30T01:22:46.289Z,8.17
2019-04-30T01:27:52.877Z,8.16
2019-04-30T01:33:00.884Z,8.11
2019-04-30T01:38:11.105Z,8.11
2019-04-30T01:43:12.420Z,8.09
2019-04-30T01:48:19.313Z,8.06
2019-04-30T01:53:24.611Z,8.08
2019-04-30T01:58:34.446Z,8.06
2019-04-30T02:03:40.099Z,8.04
2019-04-30T02:08:45.410Z,8.04
2019-04-30T02:13:50.785Z,8.00
2019-04-30T02:18:55.865Z,8.00
2019-04-30T02:24:01.871Z,7.93
2019-04-30T02:29:07.005Z,7.91
2019-04-30T02:34:13.871Z,7.97
2019-04-30T02:39:20.407Z,7.98
2019-04-30T02:44:29.206Z,7.83
2019-04-30T02:49:34.834Z,7.83
2019-04-30T02:54:43.062Z,7.82
2019-04-30T03:00:05.814Z,7.80
2019-04-30T03:05:13.722Z,7.74
2019-04-30T03:10:19.795Z,7.73
2019-04-30T03:15:25.591Z,7.73
2019-04-30T03:20:40.037Z,7.78
2019-04-30T03:25:46.226Z,7.73
2019-04-30T03:30:57.151Z,7.70
2019-04-30T03:36:02.163Z,7.72
2019-04-30T03:41:05.062Z,7.75
2019-04-30T03:46:10.316Z,7.75
2019-04-30T03:51:16.168Z,7.78
2019-04-30T03:56:22.921Z,7.84
2019-04-30T04:01:32.629Z,7.90
2019-04-30T04:06:42.045Z,8.05
2019-04-30T04:11:50.853Z,8.14
2019-04-30T04:16:55.303Z,8.15
2019-04-30T04:22:03.944Z,8.26
2019-04-30T04:27:09.578Z,8.42
2019-04-30T04:32:14.191Z,8.52
2019-04-30T04:37:20.317Z,8.64
2019-04-30T04:42:25.799Z,8.91
2019-04-30T04:47:31.241Z,9.14
2019-04-30T04:52:36.409Z,9.34
2019-04-30T04:57:41.556Z,9.51
2019-04-30T05:02:53.873Z,9.62
2019-04-30T05:07:59.019Z,9.72
2019-04-30T05:13:04.588Z,9.81
2019-04-30T05:18:09.873Z,10.02
2019-04-30T05:23:15.137Z,10.02
2019-04-30T05:28:20.300Z,10.10
2019-04-30T05:33:25.481Z,10.28
2019-04-30T05:38:31.323Z,10.27
2019-04-30T05:43:38.712Z,10.38
2019-04-30T05:48:43.994Z,10.46
2019-04-30T05:53:49.249Z,10.62
2019-04-30T05:58:54.655Z,10.66
2019-04-30T06:03:59.807Z,10.75
2019-04-30T06:09:30.445Z,10.82
2019-04-30T06:14:48.033Z,10.67
2019-04-30T06:19:41.764Z,10.74
2019-04-30T06:24:46.958Z,10.99
2019-04-30T06:29:52.160Z,11.15
2019-04-30T06:34:59.227Z,11.24
2019-04-30T06:40:11.413Z,11.25
2019-04-30T06:45:14.472Z,11.38
2019-04-30T06:50:19.818Z,11.53
2019-04-30T06:55:25.022Z,11.44
2019-04-30T07:00:39.954Z,11.69
2019-04-30T07:05:45.321Z,11.72
2019-04-30T07:11:07.377Z,11.79
2019-04-30T07:16:08.318Z,11.86
2019-04-30T07:21:14.963Z,11.92
2019-04-30T07:26:24.471Z,11.82
2019-04-30T07:31:29.360Z,11.94
2019-04-30T07:36:45.781Z,12.04
2019-04-30T07:41:41.594Z,12.00
2019-04-30T07:46:46.776Z,12.07
2019-04-30T07:51:52.879Z,12.16
2019-04-30T07:57:00.392Z,12.27
2019-04-30T08:02:12.221Z,12.40
2019-04-30T08:07:14.053Z,12.41
2019-04-30T08:12:26.338Z,12.39
2019-04-30T08:17:26.193Z,12.41
2019-04-30T08:22:31.359Z,12.55
2019-04-30T08:27:36.725Z,12.58
2019-04-30T08:32:42.452Z,12.33
2019-04-30T08:37:49.664Z,12.46
2019-04-30T08:42:54.736Z,12.34
2019-04-30T08:48:00.329Z,12.30
2019-04-30T08:53:05.676Z,12.37
2019-04-30T08:58:14.885Z,12.33
2019-04-30T09:03:19.430Z,12.45
2019-04-30T09:08:25.023Z,12.27
2019-04-30T09:13:30.384Z,12.13
2019-04-30T09:18:35.517Z,11.97
2019-04-30T09:23:49.389Z,12.12
2019-04-30T09:28:49.410Z,12.34
2019-04-30T09:33:57.885Z,12.53
2019-04-30T09:39:01.969Z,12.32
2019-04-30T09:44:10.035Z,12.09
2019-04-30T09:49:15.575Z,12.10
2019-04-30T09:54:21.278Z,12.25
2019-04-30T09:59:29.192Z,12.33
2019-04-30T10:04:34.971Z,12.27
2019-04-30T10:09:40.798Z,12.59
2019-04-30T10:14:46.090Z,12.43
2019-04-30T10:19:51.508Z,12.67
2019-04-30T10:24:56.891Z,13.02
2019-04-30T10:30:02.590Z,12.71
2019-04-30T10:35:08.600Z,12.91
2019-04-30T10:40:14.510Z,12.94
2019-04-30T10:45:20.267Z,13.22
2019-04-30T10:50:26.329Z,13.27
2019-04-30T10:55:33.128Z,13.67
2019-04-30T11:00:41.440Z,13.68
2019-04-30T11:05:48.829Z,13.91
2019-04-30T11:10:54.632Z,13.96
2019-04-30T11:16:11.891Z,14.08
2019-04-30T11:21:09.483Z,13.91
2019-04-30T11:26:15.083Z,13.89
2019-04-30T11:31:25.883Z,13.95
2019-04-30T11:36:32.068Z,14.24
2019-04-30T11:41:39.479Z,14.28
2019-04-30T11:46:59.745Z,14.35
2019-04-30T11:52:05.790Z,14.52
2019-04-30T11:57:11.124Z,14.55
2019-04-30T12:02:22.013Z,14.49
2019-04-30T12:07:43.810Z,14.51
2019-04-30T12:12:49.418Z,14.93
2019-04-30T12:17:54.783Z,14.48
2019-04-30T12:23:00.342Z,14.75
2019-04-30T12:28:05.592Z,14.33
2019-04-30T12:33:10.956Z,14.61
2019-04-30T12:38:16.236Z,14.46
2019-04-30T12:43:21.557Z,14.69
2019-04-30T12:48:44.954Z,14.85
2019-04-30T12:54:08.469Z,15.18
2019-04-30T12:59:13.806Z,15.09
2019-04-30T13:04:19.418Z,15.56
2019-04-30T13:09:25.462Z,15.78
2019-04-30T13:14:31.774Z,17.21
2019-04-30T13:19:37.576Z,18.52
2019-04-30T13:24:43.126Z,17.23
2019-04-30T13:29:50.511Z,17.50
2019-04-30T13:35:00.725Z,17.57
2019-04-30T13:40:08.855Z,17.03
2019-04-30T13:45:15.554Z,18.35
2019-04-30T13:50:21.568Z,18.64
2019-04-30T13:55:29.191Z,19.11
2019-04-30T14:00:34.073Z,19.48
2019-04-30T14:05:39.760Z,18.93
2019-04-30T14:10:46.836Z,19.27
2019-04-30T14:15:52.185Z,20.00
2019-04-30T14:21:00.799Z,19.40
2019-04-30T14:26:05.216Z,19.92
2019-04-30T14:31:11.092Z,20.74
2019-04-30T14:36:16.705Z,21.04
2019-04-30T14:41:22.689Z,20.51
2019-04-30T14:46:39.766Z,21.15
2019-04-30T14:51:45.579Z,22.09
2019-04-30T14:57:01.715Z,22.21
2019-04-30T15:02:14.373Z,22.35
2019-04-30T15:07:19.862Z,21.36
2019-04-30T15:12:25.834Z,22.21
2019-04-30T15:17:31.229Z,21.64
2019-04-30T15:22:38.896Z,22.41
2019-04-30T15:27:49.111Z,22.56
2019-04-30T15:32:53.446Z,22.18
2019-04-30T15:37:59.623Z,21.37
2019-04-30T15:43:07.279Z,20.83
2019-04-30T15:48:13.004Z,21.81
2019-04-30T15:53:19.386Z,21.15
2019-04-30T15:58:26.711Z,20.31
2019-04-30T16:03:36.147Z,18.88
2019-04-30T16:08:52.303Z,17.41
2019-04-30T16:14:16.234Z,16.46
2019-04-30T16:19:21.613Z,16.55
2019-04-30T16:24:28.707Z,16.16
2019-04-30T16:29:34.072Z,15.12
2019-04-30T16:34:39.377Z,14.92
2019-04-30T16:39:45.713Z,14.51
2019-04-30T16:44:51.373Z,14.52
2019-04-30T16:49:58.749Z,14.31
2019-04-30T16:55:06.914Z,14.14
2019-04-30T17:00:16.585Z,13.90
2019-04-30T17:05:23.539Z,13.67
2019-04-30T17:10:30.660Z,13.44
2019-04-30T17:15:37.868Z,13.34
2019-04-30T17:20:43.148Z,13.31
2019-04-30T17:25:48.573Z,13.28
2019-04-30T17:30:55.464Z,13.19
2019-04-30T17:36:01.151Z,13.11
2019-04-30T17:41:06.595Z,13.04
2019-04-30T17:46:11.968Z,13.04
2019-04-30T17:51:17.417Z,12.93
2019-04-30T17:56:24.439Z,12.81
2019-04-30T18:01:30.393Z,12.71
2019-04-30T18:06:35.851Z,12.54
2019-04-30T18:11:41.421Z,12.29
2019-04-30T18:16:48.605Z,12.22
2019-04-30T18:21:55.613Z,12.25
2019-04-30T18:27:21.272Z,12.24
2019-04-30T18:32:29.662Z,12.28
2019-04-30T18:37:34.953Z,12.21
2019-04-30T18:42:40.234Z,12.20
2019-04-30T18:47:45.672Z,12.21
2019-04-30T18:52:52.872Z,12.13
2019-04-30T18:58:01.255Z,12.20
2019-04-30T19:03:05.138Z,12.10
2019-04-30T19:08:29.426Z,12.16
2019-04-30T19:13:36.179Z,12.04
2019-04-30T19:18:45.575Z,12.07
2019-04-30T19:23:50.877Z,11.92
2019-04-30T19:28:56.387Z,11.99
2019-04-30T19:34:01.702Z,11.98
2019-04-30T19:39:09.305Z,12.06
2019-04-30T19:44:15.249Z,12.04
2019-04-30T19:49:21.027Z,12.02
2019-04-30T19:54:26.271Z,11.92
2019-04-30T19:59:32.101Z,11.87
2019-04-30T20:04:40.404Z,11.69
2019-04-30T20:09:44.277Z,11.60
2019-04-30T20:14:49.698Z,11.56
2019-04-30T20:19:54.867Z,11.37
2019-04-30T20:25:00.559Z,11.24
2019-04-30T20:30:09.541Z,11.16
2019-04-30T20:35:16.995Z,11.07
2019-04-30T20:40:23.015Z,10.88
2019-04-30T20:45:29.203Z,10.79
2019-04-30T20:50:35.635Z,10.72
2019-04-30T20:55:41.204Z,10.52
2019-04-30T21:00:46.478Z,10.46
2019-04-30T21:05:52.124Z,10.44
2019-04-30T21:10:59.378Z,10.24
2019-04-30T21:16:05.230Z,10.11
2019-04-30T21:21:10.424Z,10.03
2019-04-30T21:26:16.300Z,9.87
2019-04-30T21:31:35.405Z,9.86
2019-04-30T21:36:40.788Z,9.85
2019-04-30T21:41:46.221Z,9.68
2019-04-30T21:46:51.447Z,9.73
2019-04-30T21:51:56.680Z,9.58
2019-04-30T21:57:02.092Z,9.56
2019-04-30T22:02:07.976Z,9.43
2019-04-30T22:07:13.323Z,9.26
2019-04-30T22:12:19.221Z,9.14
2019-04-30T22:17:24.325Z,8.89
2019-04-30T22:22:29.603Z,8.66
2019-04-30T22:27:34.784Z,8.76
2019-04-30T22:32:40.340Z,8.77
2019-04-30T22:37:45.794Z,8.55
2019-04-30T22:42:50.998Z,8.42
2019-04-30T22:47:56.403Z,8.38
2019-04-30T22:53:01.758Z,8.29
2019-04-30T22:58:07.499Z,8.17
2019-04-30T23:03:14.742Z,8.07
2019-04-30T23:08:20.401Z,8.06
2019-04-30T23:13:25.689Z,8.03
2019-04-30T23:18:32.252Z,7.94
2019-04-30T23:23:37.698Z,7.71
2019-04-30T23:28:43.123Z,7.68
2019-04-30T23:33:48.351Z,7.61
2019-04-30T23:38:53.575Z,7.52
2019-04-30T23:43:58.953Z,7.40
2019-04-30T23:49:05.262Z,7.37
2019-04-30T23:54:10.477Z,7.32
2019-04-30T23:59:15.892Z,7.33
